PWSweather.com
Personal Weather Stations
Station Observations
KOHAVON11
Long Road Station, Avon, OH 44011

Long Road StationAvon, OH 44011

Lat: 41.437, Lon: -82.0477

Elevation: 686

Station Type: Davis Vantage Pro2

http://www.avon-weather.com

High Low Average
Temperature 73.9°F23.3°F 49.8°F9.9°F 60.6°F15.9°F
Dew Point 49.4°F9.7°F 38.1°F3.4°F 43.3°F6.3°F
Winds 24.0 mph WSW38.6 mph WSW Calm Calm 5.3 mph 8.5 mph
Wind Gusts 24.0 mph38.6 mph -- 12.0 mph19.3 mph
Humidity 78% 31% 57%
Pressure 29.93 in1013.50 in 29.74 in1007.10 in -
Precipitation 0.00 in0.00 in - -
Hour Temp Dew Point Humidity Winds Wind Gusts Pressure Precip Precip Rate Daily Precip Total
12:03 AM 54.8°F12.7°C 46.5°F8.1°C 74% 3.0 mph SSW4.8 kmh SSW 8.0 mph12.9 kmh 29.93 in1013.5 mb 0.00 in0.0 mm 0.00 in0.0 mm 0.00 in0.0 mm
12:08 AM 54.7°F12.6°C 46.4°F8.0°C 74% 3.0 mph SW4.8 kmh SW 11.0 mph17.7 kmh 29.92 in1013.2 mb 0.00 in0.0 mm 0.00 in0.0 mm 0.00 in0.0 mm
12:13 AM 54.7°F12.6°C 46.4°F8.0°C 74% 5.0 mph S8.0 kmh S 11.0 mph17.7 kmh 29.93 in1013.5 mb 0.00 in0.0 mm 0.00 in0.0 mm 0.00 in0.0 mm
12:18 AM 54.6°F12.6°C 46.3°F7.9°C 74% 7.0 mph S11.3 kmh S 11.0 mph17.7 kmh 29.92 in1013.2 mb 0.00 in0.0 mm 0.00 in0.0 mm 0.00 in0.0 mm
12:23 AM 54.6°F12.6°C 46.3°F7.9°C 74% 3.0 mph SW4.8 kmh SW 11.0 mph17.7 kmh 29.92 in1013.2 mb 0.00 in0.0 mm 0.00 in0.0 mm 0.00 in0.0 mm
12:28 AM 54.6°F12.6°C 46.3°F7.9°C 74% 5.0 mph SSW8.0 kmh SSW 12.0 mph19.3 kmh 29.92 in1013.2 mb 0.00 in0.0 mm 0.00 in0.0 mm 0.00 in0.0 mm
12:33 AM 54.5°F12.5°C 46.2°F7.9°C 74% 8.0 mph S12.9 kmh S 12.0 mph19.3 kmh 29.92 in1013.2 mb 0.00 in0.0 mm 0.00 in0.0 mm 0.00 in0.0 mm
12:38 AM 54.3°F12.4°C 46.4°F8.0°C 75% 3.0 mph SW4.8 kmh SW 12.0 mph19.3 kmh 29.92 in1013.2 mb 0.00 in0.0 mm 0.00 in0.0 mm 0.00 in0.0 mm
12:43 AM 54.1°F12.3°C 46.2°F7.9°C 75% 3.0 mph S4.8 kmh S 12.0 mph19.3 kmh 29.92 in1013.2 mb 0.00 in0.0 mm 0.00 in0.0 mm 0.00 in0.0 mm
12:48 AM 54.0°F12.2°C 46.5°F8.1°C 76% 6.0 mph SSW9.7 kmh SSW 10.0 mph16.1 kmh 29.91 in1012.9 mb 0.00 in0.0 mm 0.00 in0.0 mm 0.00 in0.0 mm
12:53 AM 53.9°F12.2°C 46.4°F8.0°C 76% 3.0 mph S4.8 kmh S 10.0 mph16.1 kmh 29.92 in1013.2 mb 0.00 in0.0 mm 0.00 in0.0 mm 0.00 in0.0 mm
12:58 AM 54.0°F12.2°C 46.5°F8.1°C 76% 7.0 mph S11.3 kmh S 11.0 mph17.7 kmh 29.92 in1013.2 mb 0.00 in0.0 mm 0.00 in0.0 mm 0.00 in0.0 mm
01:03 AM 54.1°F12.3°C 46.6°F8.1°C 76% 4.0 mph S6.4 kmh S 11.0 mph17.7 kmh 29.91 in1012.9 mb 0.00 in0.0 mm 0.00 in0.0 mm 0.00 in0.0 mm
01:08 AM 54.2°F12.3°C 46.3°F7.9°C 75% 5.0 mph WSW8.0 kmh WSW 11.0 mph17.7 kmh 29.91 in1012.9 mb 0.00 in0.0 mm 0.00 in0.0 mm 0.00 in0.0 mm
01:13 AM 54.1°F12.3°C 46.2°F7.9°C 75% 2.0 mph SW3.2 kmh SW 11.0 mph17.7 kmh 29.91 in1012.9 mb 0.00 in0.0 mm 0.00 in0.0 mm 0.00 in0.0 mm
01:18 AM 54.0°F12.2°C 46.1°F7.8°C 75% 6.0 mph S9.7 kmh S 11.0 mph17.7 kmh 29.91 in1012.9 mb 0.00 in0.0 mm 0.00 in0.0 mm 0.00 in0.0 mm
01:23 AM 54.0°F12.2°C 46.1°F7.8°C 75% 4.0 mph SSW6.4 kmh SSW 12.0 mph19.3 kmh 29.91 in1012.9 mb 0.00 in0.0 mm 0.00 in0.0 mm 0.00 in0.0 mm
01:28 AM 53.9°F12.2°C 45.7°F7.6°C 74% 3.0 mph SSW4.8 kmh SSW 12.0 mph19.3 kmh 29.91 in1012.9 mb 0.00 in0.0 mm 0.00 in0.0 mm 0.00 in0.0 mm
01:33 AM 53.7°F12.1°C 45.8°F7.7°C 75% 3.0 mph WSW4.8 kmh WSW 12.0 mph19.3 kmh 29.91 in1012.9 mb 0.00 in0.0 mm 0.00 in0.0 mm 0.00 in0.0 mm
01:38 AM 53.7°F12.1°C 45.8°F7.7°C 75% 4.0 mph SW6.4 kmh SW 12.0 mph19.3 kmh 29.91 in1012.9 mb 0.00 in0.0 mm 0.00 in0.0 mm 0.00 in0.0 mm
01:43 AM 53.6°F12.0°C 45.7°F7.6°C 75% 2.0 mph SW3.2 kmh SW 10.0 mph16.1 kmh 29.91 in1012.9 mb 0.00 in0.0 mm 0.00 in0.0 mm 0.00 in0.0 mm
01:48 AM 53.7°F12.1°C 45.8°F7.7°C 75% 4.0 mph SW6.4 kmh SW 10.0 mph16.1 kmh 29.91 in1012.9 mb 0.00 in0.0 mm 0.00 in0.0 mm 0.00 in0.0 mm
01:53 AM 53.7°F12.1°C 45.8°F7.7°C 75% 3.0 mph S4.8 kmh S 11.0 mph17.7 kmh 29.91 in1012.9 mb 0.00 in0.0 mm 0.00 in0.0 mm 0.00 in0.0 mm
01:58 AM 53.6°F12.0°C 45.7°F7.6°C 75% 4.0 mph SSW6.4 kmh SSW 11.0 mph17.7 kmh 29.91 in1012.9 mb 0.00 in0.0 mm 0.00 in0.0 mm 0.00 in0.0 mm
02:03 AM 53.3°F11.8°C 45.4°F7.4°C 75% 3.0 mph SW4.8 kmh SW 11.0 mph17.7 kmh 29.91 in1012.9 mb 0.00 in0.0 mm 0.00 in0.0 mm 0.00 in0.0 mm
02:08 AM 53.2°F11.8°C 45.7°F7.6°C 76% 5.0 mph SW8.0 kmh SW 11.0 mph17.7 kmh 29.91 in1012.9 mb 0.00 in0.0 mm 0.00 in0.0 mm 0.00 in0.0 mm
02:13 AM 53.1°F11.7°C 45.6°F7.6°C 76% 3.0 mph SSW4.8 kmh SSW 8.0 mph12.9 kmh 29.91 in1012.9 mb 0.00 in0.0 mm 0.00 in0.0 mm 0.00 in0.0 mm
02:18 AM 52.9°F11.6°C 45.4°F7.4°C 76% 6.0 mph SSW9.7 kmh SSW 8.0 mph12.9 kmh 29.91 in1012.9 mb 0.00 in0.0 mm 0.00 in0.0 mm 0.00 in0.0 mm
02:23 AM 52.7°F11.5°C 45.2°F7.3°C 76% 2.0 mph WSW3.2 kmh WSW 7.0 mph11.3 kmh 29.91 in1012.9 mb 0.00 in0.0 mm 0.00 in0.0 mm 0.00 in0.0 mm
02:28 AM 52.7°F11.5°C 45.6°F7.6°C 77% 2.0 mph SW3.2 kmh SW 8.0 mph12.9 kmh 29.91 in1012.9 mb 0.00 in0.0 mm 0.00 in0.0 mm 0.00 in0.0 mm
02:33 AM 52.5°F11.4°C 45.4°F7.4°C 77% 11.0 mph S17.7 kmh S 11.0 mph17.7 kmh 29.91 in1012.9 mb 0.00 in0.0 mm 0.00 in0.0 mm 0.00 in0.0 mm
02:38 AM 52.4°F11.3°C 45.3°F7.4°C 77% 2.0 mph WSW3.2 kmh WSW 11.0 mph17.7 kmh 29.90 in1012.5 mb 0.00 in0.0 mm 0.00 in0.0 mm 0.00 in0.0 mm
02:43 AM 52.3°F11.3°C 45.5°F7.5°C 78% 2.0 mph SW3.2 kmh SW 11.0 mph17.7 kmh 29.90 in1012.5 mb 0.00 in0.0 mm 0.00 in0.0 mm 0.00 in0.0 mm
02:48 AM 52.3°F11.3°C 45.2°F7.3°C 77% 1.0 mph SW1.6 kmh SW 11.0 mph17.7 kmh 29.90 in1012.5 mb 0.00 in0.0 mm 0.00 in0.0 mm 0.00 in0.0 mm
02:53 AM 52.2°F11.2°C 45.1°F7.3°C 77% 1.0 mph WSW1.6 kmh WSW 11.0 mph17.7 kmh 29.90 in1012.5 mb 0.00 in0.0 mm 0.00 in0.0 mm 0.00 in0.0 mm
02:58 AM 52.0°F11.1°C 45.3°F7.4°C 78% 2.0 mph WSW3.2 kmh WSW 9.0 mph14.5 kmh 29.90 in1012.5 mb 0.00 in0.0 mm 0.00 in0.0 mm 0.00 in0.0 mm
03:03 AM 52.0°F11.1°C 45.3°F7.4°C 78% 3.0 mph SW4.8 kmh SW 9.0 mph14.5 kmh 29.90 in1012.5 mb 0.00 in0.0 mm 0.00 in0.0 mm 0.00 in0.0 mm
03:08 AM 52.0°F11.1°C 45.3°F7.4°C 78% 4.0 mph SSW6.4 kmh SSW 7.0 mph11.3 kmh 29.90 in1012.5 mb 0.00 in0.0 mm 0.00 in0.0 mm 0.00 in0.0 mm
03:13 AM 51.9°F11.1°C 44.8°F7.1°C 77% 3.0 mph S4.8 kmh S 8.0 mph12.9 kmh 29.89 in1012.2 mb 0.00 in0.0 mm 0.00 in0.0 mm 0.00 in0.0 mm
03:18 AM 51.9°F11.1°C 44.8°F7.1°C 77% 1.0 mph SW1.6 kmh SW 8.0 mph12.9 kmh 29.89 in1012.2 mb 0.00 in0.0 mm 0.00 in0.0 mm 0.00 in0.0 mm
03:23 AM 51.7°F10.9°C 45.0°F7.2°C 78% 5.0 mph S8.0 kmh S 8.0 mph12.9 kmh 29.89 in1012.2 mb 0.00 in0.0 mm 0.00 in0.0 mm 0.00 in0.0 mm
03:28 AM 51.6°F10.9°C 44.9°F7.2°C 78% 4.0 mph S6.4 kmh S 8.0 mph12.9 kmh 29.89 in1012.2 mb 0.00 in0.0 mm 0.00 in0.0 mm 0.00 in0.0 mm
03:33 AM 51.6°F10.9°C 44.9°F7.2°C 78% 7.0 mph S11.3 kmh S 8.0 mph12.9 kmh 29.89 in1012.2 mb 0.00 in0.0 mm 0.00 in0.0 mm 0.00 in0.0 mm
03:38 AM 51.6°F10.9°C 44.9°F7.2°C 78% 5.0 mph S8.0 kmh S 8.0 mph12.9 kmh 29.89 in1012.2 mb 0.00 in0.0 mm 0.00 in0.0 mm 0.00 in0.0 mm
03:43 AM 51.7°F10.9°C 44.6°F7.0°C 77% 2.0 mph SW3.2 kmh SW 11.0 mph17.7 kmh 29.89 in1012.2 mb 0.00 in0.0 mm 0.00 in0.0 mm 0.00 in0.0 mm
03:48 AM 51.8°F11.0°C 44.4°F6.9°C 76% 1.0 mph SW1.6 kmh SW 11.0 mph17.7 kmh 29.89 in1012.2 mb 0.00 in0.0 mm 0.00 in0.0 mm 0.00 in0.0 mm
03:53 AM 51.7°F10.9°C 44.3°F6.8°C 76% 4.0 mph SSW6.4 kmh SSW 11.0 mph17.7 kmh 29.89 in1012.2 mb 0.00 in0.0 mm 0.00 in0.0 mm 0.00 in0.0 mm
03:58 AM 51.6°F10.9°C 44.2°F6.8°C 76% 5.0 mph WSW8.0 kmh WSW 11.0 mph17.7 kmh 29.89 in1012.2 mb 0.00 in0.0 mm 0.00 in0.0 mm 0.00 in0.0 mm
04:03 AM 51.7°F10.9°C 44.3°F6.8°C 76% 7.0 mph SSW11.3 kmh SSW 9.0 mph14.5 kmh 29.89 in1012.2 mb 0.00 in0.0 mm 0.00 in0.0 mm 0.00 in0.0 mm
04:08 AM 51.7°F10.9°C 43.9°F6.6°C 75% 2.0 mph SW3.2 kmh SW 9.0 mph14.5 kmh 29.89 in1012.2 mb 0.00 in0.0 mm 0.00 in0.0 mm 0.00 in0.0 mm
04:13 AM 51.6°F10.9°C 44.2°F6.8°C 76% 4.0 mph SW6.4 kmh SW 9.0 mph14.5 kmh 29.89 in1012.2 mb 0.00 in0.0 mm 0.00 in0.0 mm 0.00 in0.0 mm
04:18 AM 51.6°F10.9°C 44.2°F6.8°C 76% 7.0 mph S11.3 kmh S 9.0 mph14.5 kmh 29.89 in1012.2 mb 0.00 in0.0 mm 0.00 in0.0 mm 0.00 in0.0 mm
04:23 AM 51.4°F10.8°C 44.0°F6.7°C 76% 2.0 mph SW3.2 kmh SW 9.0 mph14.5 kmh 29.89 in1012.2 mb 0.00 in0.0 mm 0.00 in0.0 mm 0.00 in0.0 mm
04:28 AM 51.3°F10.7°C 43.9°F6.6°C 76% 2.0 mph S3.2 kmh S 9.0 mph14.5 kmh 29.89 in1012.2 mb 0.00 in0.0 mm 0.00 in0.0 mm 0.00 in0.0 mm
04:33 AM 51.2°F10.7°C 44.1°F6.7°C 77% 3.0 mph S4.8 kmh S 9.0 mph14.5 kmh 29.89 in1012.2 mb 0.00 in0.0 mm 0.00 in0.0 mm 0.00 in0.0 mm
04:38 AM 51.1°F10.6°C 44.0°F6.7°C 77% 7.0 mph S11.3 kmh S 12.0 mph19.3 kmh 29.88 in1011.9 mb 0.00 in0.0 mm 0.00 in0.0 mm 0.00 in0.0 mm
04:43 AM 51.1°F10.6°C 43.7°F6.5°C 76% 6.0 mph S9.7 kmh S 12.0 mph19.3 kmh 29.88 in1011.9 mb 0.00 in0.0 mm 0.00 in0.0 mm 0.00 in0.0 mm
04:48 AM 51.1°F10.6°C 43.7°F6.5°C 76% 5.0 mph S8.0 kmh S 12.0 mph19.3 kmh 29.88 in1011.9 mb 0.00 in0.0 mm 0.00 in0.0 mm 0.00 in0.0 mm
04:53 AM 51.1°F10.6°C 43.3°F6.3°C 75% 3.0 mph S4.8 kmh S 12.0 mph19.3 kmh 29.88 in1011.9 mb 0.00 in0.0 mm 0.00 in0.0 mm 0.00 in0.0 mm
04:58 AM 51.0°F10.6°C 43.2°F6.2°C 75% 5.0 mph S8.0 kmh S 9.0 mph14.5 kmh 29.88 in1011.9 mb 0.00 in0.0 mm 0.00 in0.0 mm 0.00 in0.0 mm
05:03 AM 50.9°F10.5°C 43.5°F6.4°C 76% 8.0 mph S12.9 kmh S 11.0 mph17.7 kmh 29.88 in1011.9 mb 0.00 in0.0 mm 0.00 in0.0 mm 0.00 in0.0 mm
05:08 AM 50.9°F10.5°C 43.5°F6.4°C 76% 4.0 mph S6.4 kmh S 11.0 mph17.7 kmh 29.88 in1011.9 mb 0.00 in0.0 mm 0.00 in0.0 mm 0.00 in0.0 mm
05:13 AM 50.8°F10.4°C 43.0°F6.1°C 75% 5.0 mph S8.0 kmh S 11.0 mph17.7 kmh 29.88 in1011.9 mb 0.00 in0.0 mm 0.00 in0.0 mm 0.00 in0.0 mm
05:18 AM 50.7°F10.4°C 42.9°F6.1°C 75% 8.0 mph S12.9 kmh S 11.0 mph17.7 kmh 29.88 in1011.9 mb 0.00 in0.0 mm 0.00 in0.0 mm 0.00 in0.0 mm
05:23 AM 50.8°F10.4°C 43.0°F6.1°C 75% 8.0 mph SW12.9 kmh SW 11.0 mph17.7 kmh 29.88 in1011.9 mb 0.00 in0.0 mm 0.00 in0.0 mm 0.00 in0.0 mm
05:28 AM 50.9°F10.5°C 42.8°F6.0°C 74% 5.0 mph SW8.0 kmh SW 13.0 mph20.9 kmh 29.88 in1011.9 mb 0.00 in0.0 mm 0.00 in0.0 mm 0.00 in0.0 mm
05:33 AM 50.9°F10.5°C 42.8°F6.0°C 74% 2.0 mph SW3.2 kmh SW 13.0 mph20.9 kmh 29.88 in1011.9 mb 0.00 in0.0 mm 0.00 in0.0 mm 0.00 in0.0 mm
05:38 AM 50.8°F10.4°C 42.7°F5.9°C 74% 3.0 mph SW4.8 kmh SW 13.0 mph20.9 kmh 29.88 in1011.9 mb 0.00 in0.0 mm 0.00 in0.0 mm 0.00 in0.0 mm
05:43 AM 50.8°F10.4°C 42.7°F5.9°C 74% 3.0 mph SW4.8 kmh SW 13.0 mph20.9 kmh 29.88 in1011.9 mb 0.00 in0.0 mm 0.00 in0.0 mm 0.00 in0.0 mm
05:48 AM 50.8°F10.4°C 42.7°F5.9°C 74% 4.0 mph SW6.4 kmh SW 12.0 mph19.3 kmh 29.88 in1011.9 mb 0.00 in0.0 mm 0.00 in0.0 mm 0.00 in0.0 mm
05:53 AM 50.7°F10.4°C 42.6°F5.9°C 74% 2.0 mph SW3.2 kmh SW 12.0 mph19.3 kmh 29.88 in1011.9 mb 0.00 in0.0 mm 0.00 in0.0 mm 0.00 in0.0 mm
05:58 AM 50.6°F10.3°C 42.5°F5.8°C 74% 4.0 mph SW6.4 kmh SW 12.0 mph19.3 kmh 29.88 in1011.9 mb 0.00 in0.0 mm 0.00 in0.0 mm 0.00 in0.0 mm
06:03 AM 50.6°F10.3°C 42.5°F5.8°C 74% 2.0 mph S3.2 kmh S 12.0 mph19.3 kmh 29.88 in1011.9 mb 0.00 in0.0 mm 0.00 in0.0 mm 0.00 in0.0 mm
06:08 AM 50.4°F10.2°C 42.3°F5.7°C 74% 4.0 mph SSW6.4 kmh SSW 10.0 mph16.1 kmh 29.88 in1011.9 mb 0.00 in0.0 mm 0.00 in0.0 mm 0.00 in0.0 mm
06:13 AM 50.4°F10.2°C 42.3°F5.7°C 74% 10.0 mph SSW16.1 kmh SSW 10.0 mph16.1 kmh 29.87 in1011.5 mb 0.00 in0.0 mm 0.00 in0.0 mm 0.00 in0.0 mm
06:18 AM 50.4°F10.2°C 42.3°F5.7°C 74% 7.0 mph SSW11.3 kmh SSW 12.0 mph19.3 kmh 29.88 in1011.9 mb 0.00 in0.0 mm 0.00 in0.0 mm 0.00 in0.0 mm
06:23 AM 50.3°F10.2°C 42.2°F5.7°C 74% 4.0 mph SW6.4 kmh SW 15.0 mph24.1 kmh 29.88 in1011.9 mb 0.00 in0.0 mm 0.00 in0.0 mm 0.00 in0.0 mm
06:28 AM 50.2°F10.1°C 42.5°F5.8°C 75% 7.0 mph SW11.3 kmh SW 15.0 mph24.1 kmh 29.88 in1011.9 mb 0.00 in0.0 mm 0.00 in0.0 mm 0.00 in0.0 mm
06:33 AM 50.1°F10.1°C 42.4°F5.8°C 75% 9.0 mph SSW14.5 kmh SSW 15.0 mph24.1 kmh 29.88 in1011.9 mb 0.00 in0.0 mm 0.00 in0.0 mm 0.00 in0.0 mm
06:38 AM 50.0°F10.0°C 42.3°F5.7°C 75% 7.0 mph S11.3 kmh S 15.0 mph24.1 kmh 29.88 in1011.9 mb 0.00 in0.0 mm 0.00 in0.0 mm 0.00 in0.0 mm
06:43 AM 49.9°F9.9°C 42.2°F5.7°C 75% 7.0 mph SSW11.3 kmh SSW 12.0 mph19.3 kmh 29.88 in1011.9 mb 0.00 in0.0 mm 0.00 in0.0 mm 0.00 in0.0 mm
06:48 AM 49.9°F9.9°C 42.2°F5.7°C 75% 5.0 mph SSW8.0 kmh SSW 12.0 mph19.3 kmh 29.88 in1011.9 mb 0.00 in0.0 mm 0.00 in0.0 mm 0.00 in0.0 mm
06:53 AM 49.9°F9.9°C 42.2°F5.7°C 75% 9.0 mph S14.5 kmh S 11.0 mph17.7 kmh 29.87 in1011.5 mb 0.00 in0.0 mm 0.00 in0.0 mm 0.00 in0.0 mm
06:58 AM 49.8°F9.9°C 42.1°F5.6°C 75% 8.0 mph S12.9 kmh S 12.0 mph19.3 kmh 29.87 in1011.5 mb 0.00 in0.0 mm 0.00 in0.0 mm 0.00 in0.0 mm
07:03 AM 49.9°F9.9°C 42.2°F5.7°C 75% 9.0 mph SSW14.5 kmh SSW 12.0 mph19.3 kmh 29.87 in1011.5 mb 0.00 in0.0 mm 0.00 in0.0 mm 0.00 in0.0 mm
07:08 AM 49.9°F9.9°C 42.2°F5.7°C 75% 9.0 mph SSW14.5 kmh SSW 12.0 mph19.3 kmh 29.87 in1011.5 mb 0.00 in0.0 mm 0.00 in0.0 mm 0.00 in0.0 mm
07:13 AM 50.0°F10.0°C 41.9°F5.5°C 74% 7.0 mph SSW11.3 kmh SSW 12.0 mph19.3 kmh 29.87 in1011.5 mb 0.00 in0.0 mm 0.00 in0.0 mm 0.00 in0.0 mm
07:18 AM 50.0°F10.0°C 41.9°F5.5°C 74% 10.0 mph SSW16.1 kmh SSW 14.0 mph22.5 kmh 29.87 in1011.5 mb 0.00 in0.0 mm 0.00 in0.0 mm 0.00 in0.0 mm
07:23 AM 50.0°F10.0°C 41.9°F5.5°C 74% 9.0 mph S14.5 kmh S 14.0 mph22.5 kmh 29.87 in1011.5 mb 0.00 in0.0 mm 0.00 in0.0 mm 0.00 in0.0 mm
07:28 AM 50.0°F10.0°C 41.9°F5.5°C 74% 2.0 mph WSW3.2 kmh WSW 14.0 mph22.5 kmh 29.87 in1011.5 mb 0.00 in0.0 mm 0.00 in0.0 mm 0.00 in0.0 mm
07:33 AM 50.2°F10.1°C 41.7°F5.4°C 73% 8.0 mph SSW12.9 kmh SSW 14.0 mph22.5 kmh 29.87 in1011.5 mb 0.00 in0.0 mm 0.00 in0.0 mm 0.00 in0.0 mm
07:38 AM 50.3°F10.2°C 41.8°F5.4°C 73% 6.0 mph SW9.7 kmh SW 14.0 mph22.5 kmh 29.86 in1011.2 mb 0.00 in0.0 mm 0.00 in0.0 mm 0.00 in0.0 mm
07:43 AM 50.4°F10.2°C 41.9°F5.5°C 73% 10.0 mph S16.1 kmh S 14.0 mph22.5 kmh 29.86 in1011.2 mb 0.00 in0.0 mm 0.00 in0.0 mm 0.00 in0.0 mm
07:48 AM 50.5°F10.3°C 41.7°F5.4°C 72% 8.0 mph WSW12.9 kmh WSW 15.0 mph24.1 kmh 29.87 in1011.5 mb 0.00 in0.0 mm 0.00 in0.0 mm 0.00 in0.0 mm
07:53 AM 50.6°F10.3°C 41.8°F5.4°C 72% 9.0 mph S14.5 kmh S 15.0 mph24.1 kmh 29.86 in1011.2 mb 0.00 in0.0 mm 0.00 in0.0 mm 0.00 in0.0 mm
07:58 AM 50.9°F10.5°C 42.0°F5.6°C 72% 6.0 mph SSW9.7 kmh SSW 15.0 mph24.1 kmh 29.86 in1011.2 mb 0.00 in0.0 mm 0.00 in0.0 mm 0.00 in0.0 mm
08:03 AM 51.2°F10.7°C 42.0°F5.6°C 71% 13.0 mph SSW20.9 kmh SSW 15.0 mph24.1 kmh 29.86 in1011.2 mb 0.00 in0.0 mm 0.00 in0.0 mm 0.00 in0.0 mm
08:08 AM 51.6°F10.9°C 42.0°F5.6°C 70% 8.0 mph S12.9 kmh S 13.0 mph20.9 kmh 29.86 in1011.2 mb 0.00 in0.0 mm 0.00 in0.0 mm 0.00 in0.0 mm
08:13 AM 52.0°F11.1°C 42.0°F5.6°C 69% 8.0 mph SSW12.9 kmh SSW 15.0 mph24.1 kmh 29.86 in1011.2 mb 0.00 in0.0 mm 0.00 in0.0 mm 0.00 in0.0 mm
08:18 AM 52.5°F11.4°C 42.0°F5.6°C 68% 11.0 mph SSW17.7 kmh SSW 15.0 mph24.1 kmh 29.86 in1011.2 mb 0.00 in0.0 mm 0.00 in0.0 mm 0.00 in0.0 mm
08:23 AM 53.0°F11.7°C 42.1°F5.6°C 67% 6.0 mph S9.7 kmh S 16.0 mph25.7 kmh 29.86 in1011.2 mb 0.00 in0.0 mm 0.00 in0.0 mm 0.00 in0.0 mm
08:28 AM 53.5°F11.9°C 42.2°F5.7°C 66% 15.0 mph S24.1 kmh S 16.0 mph25.7 kmh 29.86 in1011.2 mb 0.00 in0.0 mm 0.00 in0.0 mm 0.00 in0.0 mm
08:33 AM 54.2°F12.3°C 42.0°F5.6°C 64% 5.0 mph SW8.0 kmh SW 20.0 mph32.2 kmh 29.86 in1011.2 mb 0.00 in0.0 mm 0.00 in0.0 mm 0.00 in0.0 mm
08:38 AM 54.9°F12.7°C 41.8°F5.4°C 62% 8.0 mph S12.9 kmh S 20.0 mph32.2 kmh 29.86 in1011.2 mb 0.00 in0.0 mm 0.00 in0.0 mm 0.00 in0.0 mm
08:43 AM 55.3°F12.9°C 42.2°F5.7°C 62% 7.0 mph SSW11.3 kmh SSW 20.0 mph32.2 kmh 29.86 in1011.2 mb 0.00 in0.0 mm 0.00 in0.0 mm 0.00 in0.0 mm
08:48 AM 55.6°F13.1°C 42.1°F5.6°C 61% 6.0 mph SSW9.7 kmh SSW 20.0 mph32.2 kmh 29.86 in1011.2 mb 0.00 in0.0 mm 0.00 in0.0 mm 0.00 in0.0 mm
08:53 AM 55.8°F13.2°C 42.3°F5.7°C 61% 10.0 mph S16.1 kmh S 13.0 mph20.9 kmh 29.85 in1010.8 mb 0.00 in0.0 mm 0.00 in0.0 mm 0.00 in0.0 mm
08:58 AM 56.1°F13.4°C 42.5°F5.8°C 61% 9.0 mph SSW14.5 kmh SSW 14.0 mph22.5 kmh 29.85 in1010.8 mb 0.00 in0.0 mm 0.00 in0.0 mm 0.00 in0.0 mm
09:03 AM 56.4°F13.6°C 42.4°F5.8°C 60% 4.0 mph SW6.4 kmh SW 14.0 mph22.5 kmh 29.85 in1010.8 mb 0.00 in0.0 mm 0.00 in0.0 mm 0.00 in0.0 mm
09:08 AM 56.7°F13.7°C 42.6°F5.9°C 60% 8.0 mph S12.9 kmh S 14.0 mph22.5 kmh 29.86 in1011.2 mb 0.00 in0.0 mm 0.00 in0.0 mm 0.00 in0.0 mm
09:13 AM 57.2°F14.0°C 42.7°F5.9°C 59% 10.0 mph SW16.1 kmh SW 14.0 mph22.5 kmh 29.85 in1010.8 mb 0.00 in0.0 mm 0.00 in0.0 mm 0.00 in0.0 mm
09:18 AM 57.5°F14.2°C 42.9°F6.1°C 59% 11.0 mph S17.7 kmh S 18.0 mph29.0 kmh 29.85 in1010.8 mb 0.00 in0.0 mm 0.00 in0.0 mm 0.00 in0.0 mm
09:23 AM 57.8°F14.3°C 42.8°F6.0°C 58% 6.0 mph SSW9.7 kmh SSW 18.0 mph29.0 kmh 29.85 in1010.8 mb 0.00 in0.0 mm 0.00 in0.0 mm 0.00 in0.0 mm
09:28 AM 58.2°F14.6°C 43.1°F6.2°C 58% 13.0 mph S20.9 kmh S 20.0 mph32.2 kmh 29.85 in1010.8 mb 0.00 in0.0 mm 0.00 in0.0 mm 0.00 in0.0 mm
09:33 AM 58.5°F14.7°C 43.4°F6.3°C 58% 5.0 mph WSW8.0 kmh WSW 20.0 mph32.2 kmh 29.85 in1010.8 mb 0.00 in0.0 mm 0.00 in0.0 mm 0.00 in0.0 mm
09:38 AM 58.9°F14.9°C 43.8°F6.6°C 58% 10.0 mph SSW16.1 kmh SSW 20.0 mph32.2 kmh 29.85 in1010.8 mb 0.00 in0.0 mm 0.00 in0.0 mm 0.00 in0.0 mm
09:43 AM 59.2°F15.1°C 44.1°F6.7°C 58% 13.0 mph S20.9 kmh S 20.0 mph32.2 kmh 29.85 in1010.8 mb 0.00 in0.0 mm 0.00 in0.0 mm 0.00 in0.0 mm
09:48 AM 59.8°F15.4°C 44.2°F6.8°C 57% 4.0 mph WSW6.4 kmh WSW 15.0 mph24.1 kmh 29.85 in1010.8 mb 0.00 in0.0 mm 0.00 in0.0 mm 0.00 in0.0 mm
09:53 AM 60.3°F15.7°C 44.6°F7.0°C 57% 6.0 mph SSW9.7 kmh SSW 17.0 mph27.4 kmh 29.84 in1010.5 mb 0.00 in0.0 mm 0.00 in0.0 mm 0.00 in0.0 mm
09:58 AM 61.0°F16.1°C 44.8°F7.1°C 56% 5.0 mph SSW8.0 kmh SSW 18.0 mph29.0 kmh 29.85 in1010.8 mb 0.00 in0.0 mm 0.00 in0.0 mm 0.00 in0.0 mm
10:03 AM 61.3°F16.3°C 44.6°F7.0°C 55% 9.0 mph SSW14.5 kmh SSW 18.0 mph29.0 kmh 29.85 in1010.8 mb 0.00 in0.0 mm 0.00 in0.0 mm 0.00 in0.0 mm
10:08 AM 61.9°F16.6°C 45.1°F7.3°C 55% 8.0 mph S12.9 kmh S 18.0 mph29.0 kmh 29.85 in1010.8 mb 0.00 in0.0 mm 0.00 in0.0 mm 0.00 in0.0 mm
10:13 AM 61.9°F16.6°C 45.1°F7.3°C 55% 9.0 mph WSW14.5 kmh WSW 18.0 mph29.0 kmh 29.85 in1010.8 mb 0.00 in0.0 mm 0.00 in0.0 mm 0.00 in0.0 mm
10:18 AM 62.0°F16.7°C 44.7°F7.1°C 54% 5.0 mph SW8.0 kmh SW 18.0 mph29.0 kmh 29.85 in1010.8 mb 0.00 in0.0 mm 0.00 in0.0 mm 0.00 in0.0 mm
10:23 AM 62.6°F17.0°C 45.3°F7.4°C 54% 4.0 mph SW6.4 kmh SW 18.0 mph29.0 kmh 29.84 in1010.5 mb 0.00 in0.0 mm 0.00 in0.0 mm 0.00 in0.0 mm
10:28 AM 63.2°F17.3°C 45.8°F7.7°C 54% 4.0 mph SSW6.4 kmh SSW 18.0 mph29.0 kmh 29.84 in1010.5 mb 0.00 in0.0 mm 0.00 in0.0 mm 0.00 in0.0 mm
10:33 AM 63.7°F17.6°C 45.8°F7.7°C 53% 7.0 mph SW11.3 kmh SW 18.0 mph29.0 kmh 29.84 in1010.5 mb 0.00 in0.0 mm 0.00 in0.0 mm 0.00 in0.0 mm
10:38 AM 64.1°F17.8°C 46.1°F7.8°C 53% 9.0 mph SSW14.5 kmh SSW 17.0 mph27.4 kmh 29.84 in1010.5 mb 0.00 in0.0 mm 0.00 in0.0 mm 0.00 in0.0 mm
10:43 AM 64.4°F18.0°C 45.9°F7.7°C 52% 8.0 mph SSW12.9 kmh SSW 17.0 mph27.4 kmh 29.84 in1010.5 mb 0.00 in0.0 mm 0.00 in0.0 mm 0.00 in0.0 mm
10:48 AM 64.7°F18.2°C 45.1°F7.3°C 50% 15.0 mph SW24.1 kmh SW 17.0 mph27.4 kmh 29.84 in1010.5 mb 0.00 in0.0 mm 0.00 in0.0 mm 0.00 in0.0 mm
10:53 AM 65.3°F18.5°C 46.7°F8.2°C 52% 3.0 mph SW4.8 kmh SW 17.0 mph27.4 kmh 29.83 in1010.2 mb 0.00 in0.0 mm 0.00 in0.0 mm 0.00 in0.0 mm
10:58 AM 65.4°F18.6°C 45.2°F7.3°C 49% 10.0 mph WSW16.1 kmh WSW 17.0 mph27.4 kmh 29.84 in1010.5 mb 0.00 in0.0 mm 0.00 in0.0 mm 0.00 in0.0 mm
11:03 AM 65.5°F18.6°C 46.9°F8.3°C 52% 3.0 mph SW4.8 kmh SW 17.0 mph27.4 kmh 29.83 in1010.2 mb 0.00 in0.0 mm 0.00 in0.0 mm 0.00 in0.0 mm
11:08 AM 66.1°F18.9°C 46.4°F8.0°C 50% 4.0 mph S6.4 kmh S 16.0 mph25.7 kmh 29.83 in1010.2 mb 0.00 in0.0 mm 0.00 in0.0 mm 0.00 in0.0 mm
11:13 AM 66.7°F19.3°C 46.4°F8.0°C 49% 10.0 mph SSW16.1 kmh SSW 16.0 mph25.7 kmh 29.83 in1010.2 mb 0.00 in0.0 mm 0.00 in0.0 mm 0.00 in0.0 mm
11:18 AM 67.3°F19.6°C 46.9°F8.3°C 49% 15.0 mph S24.1 kmh S 17.0 mph27.4 kmh 29.83 in1010.2 mb 0.00 in0.0 mm 0.00 in0.0 mm 0.00 in0.0 mm
11:23 AM 67.1°F19.5°C 46.2°F7.9°C 48% 6.0 mph WSW9.7 kmh WSW 18.0 mph29.0 kmh 29.83 in1010.2 mb 0.00 in0.0 mm 0.00 in0.0 mm 0.00 in0.0 mm
11:28 AM 68.2°F20.1°C 49.4°F9.7°C 52% 3.0 mph SW4.8 kmh SW 18.0 mph29.0 kmh 29.83 in1010.2 mb 0.00 in0.0 mm 0.00 in0.0 mm 0.00 in0.0 mm
11:33 AM 67.9°F19.9°C 46.9°F8.3°C 48% 9.0 mph SW14.5 kmh SW 18.0 mph29.0 kmh 29.82 in1009.8 mb 0.00 in0.0 mm 0.00 in0.0 mm 0.00 in0.0 mm
11:38 AM 68.1°F20.1°C 46.5°F8.1°C 47% 8.0 mph SW12.9 kmh SW 20.0 mph32.2 kmh 29.82 in1009.8 mb 0.00 in0.0 mm 0.00 in0.0 mm 0.00 in0.0 mm
11:43 AM 68.7°F20.4°C 47.6°F8.7°C 48% 8.0 mph SW12.9 kmh SW 20.0 mph32.2 kmh 29.82 in1009.8 mb 0.00 in0.0 mm 0.00 in0.0 mm 0.00 in0.0 mm
11:48 AM 68.7°F20.4°C 45.8°F7.7°C 45% 6.0 mph SSW9.7 kmh SSW 20.0 mph32.2 kmh 29.82 in1009.8 mb 0.00 in0.0 mm 0.00 in0.0 mm 0.00 in0.0 mm
11:53 AM 69.8°F21.0°C 49.2°F9.6°C 49% 5.0 mph SW8.0 kmh SW 20.0 mph32.2 kmh 29.82 in1009.8 mb 0.00 in0.0 mm 0.00 in0.0 mm 0.00 in0.0 mm
11:58 AM 69.9°F21.1°C 48.7°F9.3°C 48% 9.0 mph WSW14.5 kmh WSW 20.0 mph32.2 kmh 29.82 in1009.8 mb 0.00 in0.0 mm 0.00 in0.0 mm 0.00 in0.0 mm
12:03 PM 70.2°F21.2°C 44.6°F7.0°C 41% 8.0 mph SW12.9 kmh SW 20.0 mph32.2 kmh 29.82 in1009.8 mb 0.00 in0.0 mm 0.00 in0.0 mm 0.00 in0.0 mm
12:08 PM 70.5°F21.4°C 47.5°F8.6°C 45% 8.0 mph WSW12.9 kmh WSW 18.0 mph29.0 kmh 29.82 in1009.8 mb 0.00 in0.0 mm 0.00 in0.0 mm 0.00 in0.0 mm
12:13 PM 70.7°F21.5°C 46.4°F8.0°C 43% 7.0 mph SW11.3 kmh SW 18.0 mph29.0 kmh 29.81 in1009.5 mb 0.00 in0.0 mm 0.00 in0.0 mm 0.00 in0.0 mm
12:18 PM 71.2°F21.8°C 44.8°F7.1°C 40% 10.0 mph WSW16.1 kmh WSW 15.0 mph24.1 kmh 29.81 in1009.5 mb 0.00 in0.0 mm 0.00 in0.0 mm 0.00 in0.0 mm
12:23 PM 70.9°F21.6°C 40.9°F4.9°C 35% 11.0 mph SW17.7 kmh SW 17.0 mph27.4 kmh 29.81 in1009.5 mb 0.00 in0.0 mm 0.00 in0.0 mm 0.00 in0.0 mm
12:28 PM 71.2°F21.8°C 41.9°F5.5°C 36% 7.0 mph SSW11.3 kmh SSW 17.0 mph27.4 kmh 29.80 in1009.1 mb 0.00 in0.0 mm 0.00 in0.0 mm 0.00 in0.0 mm
12:33 PM 71.4°F21.9°C 42.8°F6.0°C 37% 9.0 mph SW14.5 kmh SW 17.0 mph27.4 kmh 29.80 in1009.1 mb 0.00 in0.0 mm 0.00 in0.0 mm 0.00 in0.0 mm
12:38 PM 71.5°F21.9°C 43.7°F6.5°C 38% 10.0 mph SW16.1 kmh SW 21.0 mph33.8 kmh 29.80 in1009.1 mb 0.00 in0.0 mm 0.00 in0.0 mm 0.00 in0.0 mm
12:43 PM 71.5°F21.9°C 44.4°F6.9°C 39% 10.0 mph WSW16.1 kmh WSW 21.0 mph33.8 kmh 29.80 in1009.1 mb 0.00 in0.0 mm 0.00 in0.0 mm 0.00 in0.0 mm
12:48 PM 71.6°F22.0°C 45.2°F7.3°C 40% 5.0 mph WSW8.0 kmh WSW 21.0 mph33.8 kmh 29.80 in1009.1 mb 0.00 in0.0 mm 0.00 in0.0 mm 0.00 in0.0 mm
12:53 PM 72.0°F22.2°C 44.8°F7.1°C 39% 10.0 mph WSW16.1 kmh WSW 21.0 mph33.8 kmh 29.79 in1008.8 mb 0.00 in0.0 mm 0.00 in0.0 mm 0.00 in0.0 mm
12:58 PM 72.2°F22.3°C 45.7°F7.6°C 40% 7.0 mph W11.3 kmh W 22.0 mph35.4 kmh 29.79 in1008.8 mb 0.00 in0.0 mm 0.00 in0.0 mm 0.00 in0.0 mm
01:03 PM 71.4°F21.9°C 41.3°F5.2°C 35% 8.0 mph WSW12.9 kmh WSW 22.0 mph35.4 kmh 29.79 in1008.8 mb 0.00 in0.0 mm 0.00 in0.0 mm 0.00 in0.0 mm
01:08 PM 71.8°F22.1°C 41.7°F5.4°C 35% 16.0 mph WSW25.7 kmh WSW 22.0 mph35.4 kmh 29.79 in1008.8 mb 0.00 in0.0 mm 0.00 in0.0 mm 0.00 in0.0 mm
01:13 PM 72.2°F22.3°C 41.2°F5.1°C 34% 8.0 mph SW12.9 kmh SW 22.0 mph35.4 kmh 29.79 in1008.8 mb 0.00 in0.0 mm 0.00 in0.0 mm 0.00 in0.0 mm
01:18 PM 72.5°F22.5°C 40.7°F4.8°C 33% 9.0 mph WSW14.5 kmh WSW 18.0 mph29.0 kmh 29.79 in1008.8 mb 0.00 in0.0 mm 0.00 in0.0 mm 0.00 in0.0 mm
01:23 PM 71.9°F22.2°C 40.1°F4.5°C 33% 6.0 mph WSW9.7 kmh WSW 20.0 mph32.2 kmh 29.78 in1008.5 mb 0.00 in0.0 mm 0.00 in0.0 mm 0.00 in0.0 mm
01:28 PM 71.9°F22.2°C 39.3°F4.1°C 32% 9.0 mph WSW14.5 kmh WSW 20.0 mph32.2 kmh 29.78 in1008.5 mb 0.00 in0.0 mm 0.00 in0.0 mm 0.00 in0.0 mm
01:33 PM 72.5°F22.5°C 41.5°F5.3°C 34% 8.0 mph SW12.9 kmh SW 20.0 mph32.2 kmh 29.78 in1008.5 mb 0.00 in0.0 mm 0.00 in0.0 mm 0.00 in0.0 mm
01:38 PM 72.7°F22.6°C 40.8°F4.9°C 33% 14.0 mph WSW22.5 kmh WSW 20.0 mph32.2 kmh 29.78 in1008.5 mb 0.00 in0.0 mm 0.00 in0.0 mm 0.00 in0.0 mm
01:43 PM 72.4°F22.4°C 40.6°F4.8°C 33% 8.0 mph W12.9 kmh W 19.0 mph30.6 kmh 29.77 in1008.1 mb 0.00 in0.0 mm 0.00 in0.0 mm 0.00 in0.0 mm
01:48 PM 72.7°F22.6°C 42.4°F5.8°C 35% 5.0 mph WSW8.0 kmh WSW 19.0 mph30.6 kmh 29.77 in1008.1 mb 0.00 in0.0 mm 0.00 in0.0 mm 0.00 in0.0 mm
01:53 PM 72.9°F22.7°C 44.9°F7.2°C 38% 7.0 mph WSW11.3 kmh WSW 18.0 mph29.0 kmh 29.77 in1008.1 mb 0.00 in0.0 mm 0.00 in0.0 mm 0.00 in0.0 mm
01:58 PM 72.8°F22.7°C 40.9°F4.9°C 33% 8.0 mph WSW12.9 kmh WSW 18.0 mph29.0 kmh 29.77 in1008.1 mb 0.00 in0.0 mm 0.00 in0.0 mm 0.00 in0.0 mm
02:03 PM 72.5°F22.5°C 41.5°F5.3°C 34% 5.0 mph W8.0 kmh W 21.0 mph33.8 kmh 29.77 in1008.1 mb 0.00 in0.0 mm 0.00 in0.0 mm 0.00 in0.0 mm
02:08 PM 72.2°F22.3°C 42.0°F5.6°C 35% 24.0 mph WSW38.6 kmh WSW 24.0 mph38.6 kmh 29.77 in1008.1 mb 0.00 in0.0 mm 0.00 in0.0 mm 0.00 in0.0 mm
02:13 PM 72.7°F22.6°C 43.2°F6.2°C 36% 8.0 mph WSW12.9 kmh WSW 24.0 mph38.6 kmh 29.77 in1008.1 mb 0.00 in0.0 mm 0.00 in0.0 mm 0.00 in0.0 mm
02:18 PM 72.9°F22.7°C 41.0°F5.0°C 33% 11.0 mph WSW17.7 kmh WSW 24.0 mph38.6 kmh 29.76 in1007.8 mb 0.00 in0.0 mm 0.00 in0.0 mm 0.00 in0.0 mm
02:23 PM 73.1°F22.8°C 42.8°F6.0°C 35% 8.0 mph WSW12.9 kmh WSW 24.0 mph38.6 kmh 29.76 in1007.8 mb 0.00 in0.0 mm 0.00 in0.0 mm 0.00 in0.0 mm
02:28 PM 73.0°F22.8°C 43.5°F6.4°C 36% 7.0 mph WSW11.3 kmh WSW 16.0 mph25.7 kmh 29.75 in1007.5 mb 0.00 in0.0 mm 0.00 in0.0 mm 0.00 in0.0 mm
02:33 PM 73.2°F22.9°C 44.4°F6.9°C 37% 7.0 mph WSW11.3 kmh WSW 16.0 mph25.7 kmh 29.75 in1007.5 mb 0.00 in0.0 mm 0.00 in0.0 mm 0.00 in0.0 mm
02:38 PM 72.6°F22.6°C 43.9°F6.6°C 37% 5.0 mph WSW8.0 kmh WSW 16.0 mph25.7 kmh 29.76 in1007.8 mb 0.00 in0.0 mm 0.00 in0.0 mm 0.00 in0.0 mm
02:43 PM 72.4°F22.4°C 43.0°F6.1°C 36% 13.0 mph WSW20.9 kmh WSW 16.0 mph25.7 kmh 29.76 in1007.8 mb 0.00 in0.0 mm 0.00 in0.0 mm 0.00 in0.0 mm
02:48 PM 72.8°F22.7°C 45.5°F7.5°C 39% 4.0 mph SW6.4 kmh SW 16.0 mph25.7 kmh 29.75 in1007.5 mb 0.00 in0.0 mm 0.00 in0.0 mm 0.00 in0.0 mm
02:53 PM 72.9°F22.7°C 43.4°F6.3°C 36% 4.0 mph WSW6.4 kmh WSW 16.0 mph25.7 kmh 29.75 in1007.5 mb 0.00 in0.0 mm 0.00 in0.0 mm 0.00 in0.0 mm
02:58 PM 72.2°F22.3°C 41.2°F5.1°C 34% 4.0 mph SW6.4 kmh SW 16.0 mph25.7 kmh 29.75 in1007.5 mb 0.00 in0.0 mm 0.00 in0.0 mm 0.00 in0.0 mm
03:03 PM 73.5°F23.1°C 44.7°F7.1°C 37% 7.0 mph SW11.3 kmh SW 12.0 mph19.3 kmh 29.75 in1007.5 mb 0.00 in0.0 mm 0.00 in0.0 mm 0.00 in0.0 mm
03:08 PM 73.9°F23.3°C 43.5°F6.4°C 35% 10.0 mph WSW16.1 kmh WSW 17.0 mph27.4 kmh 29.75 in1007.5 mb 0.00 in0.0 mm 0.00 in0.0 mm 0.00 in0.0 mm
03:13 PM 73.7°F23.2°C 41.7°F5.4°C 33% 7.0 mph WSW11.3 kmh WSW 17.0 mph27.4 kmh 29.75 in1007.5 mb 0.00 in0.0 mm 0.00 in0.0 mm 0.00 in0.0 mm
03:18 PM 73.6°F23.1°C 41.6°F5.3°C 33% 6.0 mph SSW9.7 kmh SSW 17.0 mph27.4 kmh 29.75 in1007.5 mb 0.00 in0.0 mm 0.00 in0.0 mm 0.00 in0.0 mm
03:23 PM 73.6°F23.1°C 41.6°F5.3°C 33% 6.0 mph WSW9.7 kmh WSW 17.0 mph27.4 kmh 29.75 in1007.5 mb 0.00 in0.0 mm 0.00 in0.0 mm 0.00 in0.0 mm
03:28 PM 72.5°F22.5°C 40.7°F4.8°C 33% 8.0 mph W12.9 kmh W 15.0 mph24.1 kmh 29.75 in1007.5 mb 0.00 in0.0 mm 0.00 in0.0 mm 0.00 in0.0 mm
03:33 PM 72.7°F22.6°C 43.2°F6.2°C 36% 5.0 mph WSW8.0 kmh WSW 15.0 mph24.1 kmh 29.75 in1007.5 mb 0.00 in0.0 mm 0.00 in0.0 mm 0.00 in0.0 mm
03:38 PM 73.2°F22.9°C 41.3°F5.2°C 33% 14.0 mph W22.5 kmh W 15.0 mph24.1 kmh 29.75 in1007.5 mb 0.00 in0.0 mm 0.00 in0.0 mm 0.00 in0.0 mm
03:43 PM 72.9°F22.7°C 39.3°F4.1°C 31% 9.0 mph WSW14.5 kmh WSW 24.0 mph38.6 kmh 29.75 in1007.5 mb 0.00 in0.0 mm 0.00 in0.0 mm 0.00 in0.0 mm
03:48 PM 72.5°F22.5°C 40.7°F4.8°C 33% 8.0 mph S12.9 kmh S 24.0 mph38.6 kmh 29.75 in1007.5 mb 0.00 in0.0 mm 0.00 in0.0 mm 0.00 in0.0 mm
03:53 PM 72.3°F22.4°C 40.5°F4.7°C 33% 5.0 mph WSW8.0 kmh WSW 24.0 mph38.6 kmh 29.74 in1007.1 mb 0.00 in0.0 mm 0.00 in0.0 mm 0.00 in0.0 mm
03:58 PM 72.4°F22.4°C 41.4°F5.2°C 34% 4.0 mph W6.4 kmh W 24.0 mph38.6 kmh 29.75 in1007.5 mb 0.00 in0.0 mm 0.00 in0.0 mm 0.00 in0.0 mm
04:03 PM 72.1°F22.3°C 40.3°F4.6°C 33% 10.0 mph WSW16.1 kmh WSW 15.0 mph24.1 kmh 29.74 in1007.1 mb 0.00 in0.0 mm 0.00 in0.0 mm 0.00 in0.0 mm
04:08 PM 72.0°F22.2°C 39.4°F4.1°C 32% 7.0 mph SW11.3 kmh SW 16.0 mph25.7 kmh 29.74 in1007.1 mb 0.00 in0.0 mm 0.00 in0.0 mm 0.00 in0.0 mm
04:13 PM 71.7°F22.1°C 39.1°F3.9°C 32% 12.0 mph SW19.3 kmh SW 16.0 mph25.7 kmh 29.74 in1007.1 mb 0.00 in0.0 mm 0.00 in0.0 mm 0.00 in0.0 mm
04:18 PM 71.5°F21.9°C 38.1°F3.4°C 31% 11.0 mph WSW17.7 kmh WSW 18.0 mph29.0 kmh 29.74 in1007.1 mb 0.00 in0.0 mm 0.00 in0.0 mm 0.00 in0.0 mm
04:23 PM 71.3°F21.8°C 38.8°F3.8°C 32% 7.0 mph WSW11.3 kmh WSW 18.0 mph29.0 kmh 29.74 in1007.1 mb 0.00 in0.0 mm 0.00 in0.0 mm 0.00 in0.0 mm
04:28 PM 71.4°F21.9°C 38.9°F3.8°C 32% 6.0 mph SW9.7 kmh SW 18.0 mph29.0 kmh 29.74 in1007.1 mb 0.00 in0.0 mm 0.00 in0.0 mm 0.00 in0.0 mm
04:33 PM 71.6°F22.0°C 39.0°F3.9°C 32% 11.0 mph WSW17.7 kmh WSW 18.0 mph29.0 kmh 29.74 in1007.1 mb 0.00 in0.0 mm 0.00 in0.0 mm 0.00 in0.0 mm
04:38 PM 71.5°F21.9°C 39.8°F4.3°C 33% 8.0 mph WSW12.9 kmh WSW 15.0 mph24.1 kmh 29.74 in1007.1 mb 0.00 in0.0 mm 0.00 in0.0 mm 0.00 in0.0 mm
04:43 PM 71.6°F22.0°C 39.9°F4.4°C 33% 7.0 mph WSW11.3 kmh WSW 16.0 mph25.7 kmh 29.74 in1007.1 mb 0.00 in0.0 mm 0.00 in0.0 mm 0.00 in0.0 mm
04:48 PM 71.5°F21.9°C 39.8°F4.3°C 33% 4.0 mph SW6.4 kmh SW 16.0 mph25.7 kmh 29.74 in1007.1 mb 0.00 in0.0 mm 0.00 in0.0 mm 0.00 in0.0 mm
04:53 PM 71.6°F22.0°C 39.9°F4.4°C 33% 5.0 mph W8.0 kmh W 16.0 mph25.7 kmh 29.74 in1007.1 mb 0.00 in0.0 mm 0.00 in0.0 mm 0.00 in0.0 mm
04:58 PM 71.9°F22.2°C 39.3°F4.1°C 32% 5.0 mph W8.0 kmh W 17.0 mph27.4 kmh 29.74 in1007.1 mb 0.00 in0.0 mm 0.00 in0.0 mm 0.00 in0.0 mm
05:03 PM 71.8°F22.1°C 40.0°F4.4°C 33% 7.0 mph WSW11.3 kmh WSW 17.0 mph27.4 kmh 29.74 in1007.1 mb 0.00 in0.0 mm 0.00 in0.0 mm 0.00 in0.0 mm
05:08 PM 71.5°F21.9°C 39.8°F4.3°C 33% 7.0 mph SW11.3 kmh SW 17.0 mph27.4 kmh 29.74 in1007.1 mb 0.00 in0.0 mm 0.00 in0.0 mm 0.00 in0.0 mm
05:13 PM 71.3°F21.8°C 38.8°F3.8°C 32% 9.0 mph W14.5 kmh W 17.0 mph27.4 kmh 29.74 in1007.1 mb 0.00 in0.0 mm 0.00 in0.0 mm 0.00 in0.0 mm
05:18 PM 71.2°F21.8°C 39.5°F4.2°C 33% 7.0 mph SW11.3 kmh SW 16.0 mph25.7 kmh 29.74 in1007.1 mb 0.00 in0.0 mm 0.00 in0.0 mm 0.00 in0.0 mm
05:23 PM 71.0°F21.7°C 38.5°F3.6°C 32% 4.0 mph WSW6.4 kmh WSW 16.0 mph25.7 kmh 29.74 in1007.1 mb 0.00 in0.0 mm 0.00 in0.0 mm 0.00 in0.0 mm
05:28 PM 71.1°F21.7°C 40.3°F4.6°C 34% 8.0 mph SW12.9 kmh SW 12.0 mph19.3 kmh 29.74 in1007.1 mb 0.00 in0.0 mm 0.00 in0.0 mm 0.00 in0.0 mm
05:33 PM 71.1°F21.7°C 39.4°F4.1°C 33% 6.0 mph W9.7 kmh W 14.0 mph22.5 kmh 29.74 in1007.1 mb 0.00 in0.0 mm 0.00 in0.0 mm 0.00 in0.0 mm
05:38 PM 71.0°F21.7°C 39.4°F4.1°C 33% 7.0 mph W11.3 kmh W 14.0 mph22.5 kmh 29.74 in1007.1 mb 0.00 in0.0 mm 0.00 in0.0 mm 0.00 in0.0 mm
05:43 PM 71.1°F21.7°C 39.4°F4.1°C 33% 5.0 mph WSW8.0 kmh WSW 15.0 mph24.1 kmh 29.74 in1007.1 mb 0.00 in0.0 mm 0.00 in0.0 mm 0.00 in0.0 mm
05:48 PM 71.0°F21.7°C 41.0°F5.0°C 35% 7.0 mph WSW11.3 kmh WSW 15.0 mph24.1 kmh 29.75 in1007.5 mb 0.00 in0.0 mm 0.00 in0.0 mm 0.00 in0.0 mm
05:53 PM 70.9°F21.6°C 40.1°F4.5°C 34% 5.0 mph WSW8.0 kmh WSW 15.0 mph24.1 kmh 29.74 in1007.1 mb 0.00 in0.0 mm 0.00 in0.0 mm 0.00 in0.0 mm
05:58 PM 70.7°F21.5°C 41.5°F5.3°C 36% 5.0 mph WSW8.0 kmh WSW 15.0 mph24.1 kmh 29.74 in1007.1 mb 0.00 in0.0 mm 0.00 in0.0 mm 0.00 in0.0 mm
06:03 PM 70.5°F21.4°C 42.0°F5.6°C 37% 2.0 mph WSW3.2 kmh WSW 12.0 mph19.3 kmh 29.74 in1007.1 mb 0.00 in0.0 mm 0.00 in0.0 mm 0.00 in0.0 mm
06:08 PM 70.6°F21.4°C 40.6°F4.8°C 35% 3.0 mph WSW4.8 kmh WSW 12.0 mph19.3 kmh 29.74 in1007.1 mb 0.00 in0.0 mm 0.00 in0.0 mm 0.00 in0.0 mm
06:13 PM 70.8°F21.6°C 41.6°F5.3°C 36% 2.0 mph WSW3.2 kmh WSW 11.0 mph17.7 kmh 29.75 in1007.5 mb 0.00 in0.0 mm 0.00 in0.0 mm 0.00 in0.0 mm
06:18 PM 70.2°F21.2°C 41.8°F5.4°C 37% 4.0 mph SW6.4 kmh SW 11.0 mph17.7 kmh 29.75 in1007.5 mb 0.00 in0.0 mm 0.00 in0.0 mm 0.00 in0.0 mm
06:23 PM 69.9°F21.1°C 42.2°F5.7°C 38% 3.0 mph WSW4.8 kmh WSW 9.0 mph14.5 kmh 29.75 in1007.5 mb 0.00 in0.0 mm 0.00 in0.0 mm 0.00 in0.0 mm
06:28 PM 69.9°F21.1°C 40.8°F4.9°C 36% 4.0 mph WSW6.4 kmh WSW 9.0 mph14.5 kmh 29.75 in1007.5 mb 0.00 in0.0 mm 0.00 in0.0 mm 0.00 in0.0 mm
06:33 PM 69.6°F20.9°C 41.3°F5.2°C 37% 2.0 mph WSW3.2 kmh WSW 9.0 mph14.5 kmh 29.75 in1007.5 mb 0.00 in0.0 mm 0.00 in0.0 mm 0.00 in0.0 mm
06:38 PM 69.1°F20.6°C 41.5°F5.3°C 38% 3.0 mph WSW4.8 kmh WSW 9.0 mph14.5 kmh 29.75 in1007.5 mb 0.00 in0.0 mm 0.00 in0.0 mm 0.00 in0.0 mm
06:43 PM 68.3°F20.2°C 40.8°F4.9°C 38% Calm Calm 5.0 mph8.0 kmh 29.75 in1007.5 mb 0.00 in0.0 mm 0.00 in0.0 mm 0.00 in0.0 mm
06:48 PM 67.9°F19.9°C 41.2°F5.1°C 39% 1.0 mph SW1.6 kmh SW 5.0 mph8.0 kmh 29.75 in1007.5 mb 0.00 in0.0 mm 0.00 in0.0 mm 0.00 in0.0 mm
06:53 PM 67.6°F19.8°C 41.6°F5.3°C 40% Calm Calm 5.0 mph8.0 kmh 29.76 in1007.8 mb 0.00 in0.0 mm 0.00 in0.0 mm 0.00 in0.0 mm
06:58 PM 67.1°F19.5°C 41.2°F5.1°C 40% Calm Calm 6.0 mph9.7 kmh 29.76 in1007.8 mb 0.00 in0.0 mm 0.00 in0.0 mm 0.00 in0.0 mm
07:03 PM 66.3°F19.1°C 41.1°F5.1°C 41% Calm Calm -- 29.76 in1007.8 mb 0.00 in0.0 mm 0.00 in0.0 mm 0.00 in0.0 mm
07:08 PM 65.5°F18.6°C 40.4°F4.7°C 41% Calm Calm -- 29.77 in1008.1 mb 0.00 in0.0 mm 0.00 in0.0 mm 0.00 in0.0 mm
07:13 PM 65.0°F18.3°C 40.6°F4.8°C 42% Calm Calm -- 29.77 in1008.1 mb 0.00 in0.0 mm 0.00 in0.0 mm 0.00 in0.0 mm
07:18 PM 65.3°F18.5°C 40.9°F4.9°C 42% Calm Calm -- 29.77 in1008.1 mb 0.00 in0.0 mm 0.00 in0.0 mm 0.00 in0.0 mm
07:23 PM 64.8°F18.2°C 39.8°F4.3°C 41% Calm Calm -- 29.77 in1008.1 mb 0.00 in0.0 mm 0.00 in0.0 mm 0.00 in0.0 mm
07:28 PM 64.6°F18.1°C 40.3°F4.6°C 42% Calm Calm -- 29.77 in1008.1 mb 0.00 in0.0 mm 0.00 in0.0 mm 0.00 in0.0 mm
07:33 PM 64.3°F17.9°C 40.6°F4.8°C 43% Calm Calm -- 29.77 in1008.1 mb 0.00 in0.0 mm 0.00 in0.0 mm 0.00 in0.0 mm
07:38 PM 64.1°F17.8°C 39.8°F4.3°C 42% Calm Calm -- 29.77 in1008.1 mb 0.00 in0.0 mm 0.00 in0.0 mm 0.00 in0.0 mm
07:43 PM 64.0°F17.8°C 39.7°F4.3°C 42% Calm Calm -- 29.77 in1008.1 mb 0.00 in0.0 mm 0.00 in0.0 mm 0.00 in0.0 mm
07:48 PM 63.8°F17.7°C 39.5°F4.2°C 42% Calm Calm -- 29.77 in1008.1 mb 0.00 in0.0 mm 0.00 in0.0 mm 0.00 in0.0 mm
07:53 PM 63.3°F17.4°C 40.4°F4.7°C 44% Calm Calm -- 29.78 in1008.5 mb 0.00 in0.0 mm 0.00 in0.0 mm 0.00 in0.0 mm
07:58 PM 61.9°F16.6°C 40.9°F4.9°C 47% Calm Calm -- 29.78 in1008.5 mb 0.00 in0.0 mm 0.00 in0.0 mm 0.00 in0.0 mm
08:03 PM 61.2°F16.2°C 41.4°F5.2°C 49% Calm Calm -- 29.78 in1008.5 mb 0.00 in0.0 mm 0.00 in0.0 mm 0.00 in0.0 mm
08:08 PM 60.3°F15.7°C 43.7°F6.5°C 55% Calm Calm -- 29.78 in1008.5 mb 0.00 in0.0 mm 0.00 in0.0 mm 0.00 in0.0 mm
08:13 PM 58.8°F14.9°C 42.3°F5.7°C 55% Calm Calm -- 29.78 in1008.5 mb 0.00 in0.0 mm 0.00 in0.0 mm 0.00 in0.0 mm
08:18 PM 57.9°F14.4°C 43.3°F6.3°C 59% Calm Calm -- 29.79 in1008.8 mb 0.00 in0.0 mm 0.00 in0.0 mm 0.00 in0.0 mm
08:23 PM 57.4°F14.1°C 43.8°F6.6°C 61% Calm Calm -- 29.78 in1008.5 mb 0.00 in0.0 mm 0.00 in0.0 mm 0.00 in0.0 mm
08:28 PM 56.8°F13.8°C 43.6°F6.4°C 62% Calm Calm -- 29.79 in1008.8 mb 0.00 in0.0 mm 0.00 in0.0 mm 0.00 in0.0 mm
08:33 PM 56.7°F13.7°C 42.6°F5.9°C 60% Calm Calm -- 29.79 in1008.8 mb 0.00 in0.0 mm 0.00 in0.0 mm 0.00 in0.0 mm
08:38 PM 57.2°F14.0°C 43.1°F6.2°C 60% Calm Calm -- 29.79 in1008.8 mb 0.00 in0.0 mm 0.00 in0.0 mm 0.00 in0.0 mm
08:43 PM 56.6°F13.7°C 42.6°F5.9°C 60% Calm Calm -- 29.79 in1008.8 mb 0.00 in0.0 mm 0.00 in0.0 mm 0.00 in0.0 mm
08:48 PM 56.1°F13.4°C 42.5°F5.8°C 61% Calm Calm -- 29.79 in1008.8 mb 0.00 in0.0 mm 0.00 in0.0 mm 0.00 in0.0 mm
08:53 PM 55.6°F13.1°C 42.5°F5.8°C 62% Calm Calm -- 29.79 in1008.8 mb 0.00 in0.0 mm 0.00 in0.0 mm 0.00 in0.0 mm
08:58 PM 55.3°F12.9°C 42.6°F5.9°C 63% Calm Calm -- 29.80 in1009.1 mb 0.00 in0.0 mm 0.00 in0.0 mm 0.00 in0.0 mm
09:03 PM 55.8°F13.2°C 43.1°F6.2°C 63% Calm Calm -- 29.80 in1009.1 mb 0.00 in0.0 mm 0.00 in0.0 mm 0.00 in0.0 mm
09:08 PM 56.4°F13.6°C 42.8°F6.0°C 61% Calm Calm -- 29.80 in1009.1 mb 0.00 in0.0 mm 0.00 in0.0 mm 0.00 in0.0 mm
09:13 PM 56.8°F13.8°C 42.7°F5.9°C 60% Calm Calm -- 29.80 in1009.1 mb 0.00 in0.0 mm 0.00 in0.0 mm 0.00 in0.0 mm
09:18 PM 56.4°F13.6°C 42.8°F6.0°C 61% Calm Calm -- 29.80 in1009.1 mb 0.00 in0.0 mm 0.00 in0.0 mm 0.00 in0.0 mm
09:23 PM 56.1°F13.4°C 43.0°F6.1°C 62% Calm Calm -- 29.80 in1009.1 mb 0.00 in0.0 mm 0.00 in0.0 mm 0.00 in0.0 mm
09:28 PM 55.9°F13.3°C 42.3°F5.7°C 61% Calm Calm -- 29.80 in1009.1 mb 0.00 in0.0 mm 0.00 in0.0 mm 0.00 in0.0 mm
09:33 PM 55.8°F13.2°C 41.8°F5.4°C 60% Calm Calm -- 29.81 in1009.5 mb 0.00 in0.0 mm 0.00 in0.0 mm 0.00 in0.0 mm
09:38 PM 55.7°F13.2°C 42.2°F5.7°C 61% Calm Calm -- 29.81 in1009.5 mb 0.00 in0.0 mm 0.00 in0.0 mm 0.00 in0.0 mm
09:43 PM 55.3°F12.9°C 43.1°F6.2°C 64% Calm Calm -- 29.81 in1009.5 mb 0.00 in0.0 mm 0.00 in0.0 mm 0.00 in0.0 mm
09:48 PM 55.6°F13.1°C 42.9°F6.1°C 63% Calm Calm -- 29.80 in1009.1 mb 0.00 in0.0 mm 0.00 in0.0 mm 0.00 in0.0 mm
09:53 PM 55.8°F13.2°C 43.1°F6.2°C 63% Calm Calm -- 29.80 in1009.1 mb 0.00 in0.0 mm 0.00 in0.0 mm 0.00 in0.0 mm
09:58 PM 56.6°F13.7°C 43.9°F6.6°C 63% Calm Calm -- 29.81 in1009.5 mb 0.00 in0.0 mm 0.00 in0.0 mm 0.00 in0.0 mm
10:03 PM 57.2°F14.0°C 44.0°F6.7°C 62% Calm Calm -- 29.81 in1009.5 mb 0.00 in0.0 mm 0.00 in0.0 mm 0.00 in0.0 mm
10:08 PM 57.6°F14.2°C 44.4°F6.9°C 62% Calm Calm -- 29.81 in1009.5 mb 0.00 in0.0 mm 0.00 in0.0 mm 0.00 in0.0 mm
10:13 PM 58.0°F14.4°C 44.3°F6.8°C 61% Calm Calm -- 29.81 in1009.5 mb 0.00 in0.0 mm 0.00 in0.0 mm 0.00 in0.0 mm
10:18 PM 58.1°F14.5°C 44.4°F6.9°C 61% 2.0 mph SSE3.2 kmh SSE 2.0 mph3.2 kmh 29.81 in1009.5 mb 0.00 in0.0 mm 0.00 in0.0 mm 0.00 in0.0 mm
10:23 PM 57.8°F14.3°C 44.6°F7.0°C 62% 3.0 mph SSE4.8 kmh SSE 5.0 mph8.0 kmh 29.81 in1009.5 mb 0.00 in0.0 mm 0.00 in0.0 mm 0.00 in0.0 mm
10:28 PM 57.5°F14.2°C 44.3°F6.8°C 62% 4.0 mph SSE6.4 kmh SSE 6.0 mph9.7 kmh 29.81 in1009.5 mb 0.00 in0.0 mm 0.00 in0.0 mm 0.00 in0.0 mm
10:33 PM 57.5°F14.2°C 44.7°F7.1°C 63% 3.0 mph SSE4.8 kmh SSE 6.0 mph9.7 kmh 29.81 in1009.5 mb 0.00 in0.0 mm 0.00 in0.0 mm 0.00 in0.0 mm
10:38 PM 57.6°F14.2°C 44.8°F7.1°C 63% 6.0 mph S9.7 kmh S 6.0 mph9.7 kmh 29.81 in1009.5 mb 0.00 in0.0 mm 0.00 in0.0 mm 0.00 in0.0 mm
10:43 PM 57.5°F14.2°C 44.7°F7.1°C 63% 4.0 mph SSE6.4 kmh SSE 6.0 mph9.7 kmh 29.81 in1009.5 mb 0.00 in0.0 mm 0.00 in0.0 mm 0.00 in0.0 mm
10:48 PM 57.5°F14.2°C 45.1°F7.3°C 64% 4.0 mph SSE6.4 kmh SSE 6.0 mph9.7 kmh 29.81 in1009.5 mb 0.00 in0.0 mm 0.00 in0.0 mm 0.00 in0.0 mm
10:53 PM 57.8°F14.3°C 45.0°F7.2°C 63% 2.0 mph S3.2 kmh S 6.0 mph9.7 kmh 29.81 in1009.5 mb 0.00 in0.0 mm 0.00 in0.0 mm 0.00 in0.0 mm
10:58 PM 58.4°F14.7°C 45.1°F7.3°C 62% 6.0 mph S9.7 kmh S 6.0 mph9.7 kmh 29.81 in1009.5 mb 0.00 in0.0 mm 0.00 in0.0 mm 0.00 in0.0 mm
11:03 PM 58.6°F14.8°C 45.3°F7.4°C 62% 3.0 mph SSE4.8 kmh SSE 6.0 mph9.7 kmh 29.81 in1009.5 mb 0.00 in0.0 mm 0.00 in0.0 mm 0.00 in0.0 mm
11:08 PM 58.7°F14.8°C 45.4°F7.4°C 62% 2.0 mph SSE3.2 kmh SSE 6.0 mph9.7 kmh 29.81 in1009.5 mb 0.00 in0.0 mm 0.00 in0.0 mm 0.00 in0.0 mm
11:13 PM 58.7°F14.8°C 45.4°F7.4°C 62% 3.0 mph SSE4.8 kmh SSE 6.0 mph9.7 kmh 29.81 in1009.5 mb 0.00 in0.0 mm 0.00 in0.0 mm 0.00 in0.0 mm
11:18 PM 58.6°F14.8°C 45.3°F7.4°C 62% 5.0 mph S8.0 kmh S 8.0 mph12.9 kmh 29.81 in1009.5 mb 0.00 in0.0 mm 0.00 in0.0 mm 0.00 in0.0 mm
11:23 PM 58.6°F14.8°C 45.3°F7.4°C 62% 4.0 mph S6.4 kmh S 8.0 mph12.9 kmh 29.81 in1009.5 mb 0.00 in0.0 mm 0.00 in0.0 mm 0.00 in0.0 mm
11:28 PM 58.6°F14.8°C 45.3°F7.4°C 62% 7.0 mph SSE11.3 kmh SSE 8.0 mph12.9 kmh 29.81 in1009.5 mb 0.00 in0.0 mm 0.00 in0.0 mm 0.00 in0.0 mm
11:33 PM 58.7°F14.8°C 45.4°F7.4°C 62% 4.0 mph SSE6.4 kmh SSE 8.0 mph12.9 kmh 29.81 in1009.5 mb 0.00 in0.0 mm 0.00 in0.0 mm 0.00 in0.0 mm
11:38 PM 58.7°F14.8°C 45.4°F7.4°C 62% 4.0 mph SSE6.4 kmh SSE 7.0 mph11.3 kmh 29.81 in1009.5 mb 0.00 in0.0 mm 0.00 in0.0 mm 0.00 in0.0 mm
11:43 PM 58.6°F14.8°C 45.3°F7.4°C 62% 5.0 mph S8.0 kmh S 7.0 mph11.3 kmh 29.81 in1009.5 mb 0.00 in0.0 mm 0.00 in0.0 mm 0.00 in0.0 mm
11:48 PM 58.5°F14.7°C 45.2°F7.3°C 62% 7.0 mph SSW11.3 kmh SSW 8.0 mph12.9 kmh 29.82 in1009.8 mb 0.00 in0.0 mm 0.00 in0.0 mm 0.00 in0.0 mm
11:53 PM 58.6°F14.8°C 45.3°F7.4°C 62% 4.0 mph S6.4 kmh S 8.0 mph12.9 kmh 29.82 in1009.8 mb 0.00 in0.0 mm 0.00 in0.0 mm 0.00 in0.0 mm
11:58 PM 58.4°F14.7°C 45.1°F7.3°C 62% 3.0 mph S4.8 kmh S 8.0 mph12.9 kmh 29.82 in1009.8 mb 0.00 in0.0 mm 0.00 in0.0 mm 0.00 in0.0 mm